Average for Last Month June 2019
Profit: £142
Overall Average Profit Overall Profit
2019: £8,707
Average ROI Avg ROI:
101.51%

THE ODDS ARE NOW
IN YOUR FAVOUR

Signup today for FREE!

FULL BET TRACKING SYSTEM & ANALYTICS

Race Dates
DATE:
Race Course
COURSE:
Race Selection
SELECTION:
Race ODDS
ODDS:
Race Points
POINTS:
Balance
BALANCE:
19/07/19 Nottingham 16:30 Name The Wind 13'2 2 500.69
18/07/19 Epsom 19:40 Big Storm Coming 11'4 2 502.69
17/07/19 Uttoxeter 16:20 Cut The Corner 12'1 2 497.19
17/07/19 Catterick 15:30 Spirit Of Wedza 8'1 2
16/07/19 Nottingham 20:10 Heavenly Bliss 8'1 2 498.19
15/07/19 Ripon 15:50 Roundhay Park 9'4 2 500.19
14/07/19 Perth 15:15 General Allenby 11'2 2 502.19
13/07/19 Newmarket 15:30 Spanish City 7'1 2 504.19
12/07/19 Ascot 16:35 Pesto 3'1 2 503.81
07/07/19 Ayr 14:30 Five Helmets 9'2 2 505.81
06/07/19 Sandown 15:35 Regal Reality 17'2 2 496.81
05/07/19 Sandown 13:50 Beyond Equal 9'4 3 496.46
03/07/19 Bath 19:40 Listen To The Wind 1'1 3 499.46
02/07/19 Stratford 20:15 Argyle 11'2 2 502.46
01/07/19 Catterick 20:30 Rose Marmara 18'1 2 504.46
30/06/19 Windsor 14:10 Nefarious 9'2 2 506.46
29/06/19 Curragh 17:20 Anthony Van Dyck 11'8 3
29/06/19 Newmarket 15:50 Barsanti 2'1 2
29/06/19 York 14:10 Al Aakif 6'4 3
29/06/19 Newmarket 14:05 Star Alexander 11'4 2 506.51
28/06/19 Newmarket 21:00 Prejudice 7'2 2 509.01
27/06/19 Newmarket 16:25 Makzeem 7'1 2 511.01
26/06/19 Carlisle 17:00 Caustic Love 6'4 4 513.01
26/06/19 Carlisle 16:00 Wheres Jeff 5'1 2
26/06/19 Carlisle 15:30 Tadaawol 10'1 2
22/06/19 Ascot 17:35 Max Dynamite 5'1 2 499.01
22/06/19 Ayr 16:25 Maid In India 4'1 2
22/06/19 Ascot 16:20 Blue Point 7'4 3
22/06/19 Ascot 15:40 Defoe 10'3 2
22/06/19 Ascot 14:30 Pinatubo 7'2 2
21/06/19 Goodwood 18:55 Just Benjamin 13'8 2 482.1
21/06/19 Ascot 17:00 Thanks Be 50'1 2
21/06/19 Ascot 15:40 Ten Sovereigns 11'8 2
21/06/19 Ascot 15:05 Japan 6'4 3
21/06/19 Ascot 15:40 Ten Sovereigns 11'8 3
20/06/19 Ascot 17:35 Sir Ron Priestley 11'2 2 384.6
20/06/19 Ascot 16:20 Stradivarius 6'4 3
20/06/19 Ascot 15:40 Fleeting 13'8 2
20/06/19 Ascot 15:05 Cape Of Good Hope 5'1 2
20/06/19 Ascot 14:30 Sunday Sovereign 9'4 2
19/06/19 Ascot 17:35 Temple Of Heaven 13'2 2 388.1
19/06/19 Ascot 17:00 New Graduate 13'2 2
19/06/19 Ascot 16:20 Rawdaa 5'1 2
18/06/19 Ascot 17:00 Mancini 14'1 2 392.15
18/06/19 Ascot 15:40 Battaash 2'1 3
16/06/19 Doncaster 17:00 Ginger Fox 11'2 2 397.15
15/06/19 Sandown 16:25 Pour Me A Drink 9'2 2 397.1
15/06/19 Sandown 15:50 Wise Counsel 3'1DH 2
15/06/19 Chester 15:45 Angel Alexander 15'8 2
14/06/19 Aintree 20:35 Coillte Eile 8'1r4 2 391.35
14/06/19 York 15:30 Dark Intention 9'1 2
13/06/19 Newbury 15:00 Star Terms 9'2 2 379.35
12/06/19 Hamilton 18:00 Spring Bloom 15'8 2 379.29
09/06/19 Goodwood 16:10 Quench Dolly 6'1 2 381.29
08/06/19 Beverley 15:15 Oh Purple Reign 13'8 2 383.29
08/06/19 Haydock 15:00 Tarboosh 4'1 2
08/06/19 Haydock 13:45 Alhaazm 15'8 2
07/06/19 Haydock 18:20 Jackamundo 5'1 2 389.29
07/06/19 Brighton 15:35 Fair Power 9'4 2
06/06/19 Haydock 16:10 Boundary Lane 4'1 2 381.29
05/06/19 Ripon 21:00 Dubai Tradition 11'8 3 381.11
05/06/19 Kempton 20:15 Sassie 13'2 2
01/06/19 Epsom 17:15 Sextant 5'2 2 371.11
01/06/19 Epsom 16:30 Telecaster 112 2
01/06/19 Epsom 15:45 Hathiq 4'1 2
31/05/19 Chelmsford City 19:10 Livvys Dream 3'1 2 377.11
31/05/19 Epsom 17:15 Angels Hideaway 5'2 2
31/05/19 Epsom 14:00 Misty Grey 10'3 2
30/05/19 Sandown 19:35 Sameem 7'2 2 383.11
29/05/19 Hamilton 14:50 Alabanza 6'1 2 385.11
27/05/19 Redcar 16:10 Al Muffrih 15'8 2 387.11
25/05/19 Goodwood 17:30 Neon Sea 11'10 3 383.36
25/05/19 Haydock 16:35 Signora Cabello 7'2 2
25/05/19 Haydock 16:00 Battaash 11'10 2
25/05/19 Goodwood 15:40 Mirage Dancer 6'5 3
24/05/19 Goodwood 15:30 Persian Moon 13'2 2 376.26
23/05/19 Goodwood 16:20 Aloe Vera 10'3 2 378.26
23/05/19 Goodwood 15:45 Baryshnikov 5'1 2
21/05/19 Brighton 15:35 Strawberry Jack 11'2 2 373.6
20/05/19 Leicester 20:45 Babbos Boy 5'4 3 375.6
20/05/19 Carlisle 14:45 Uncle Charlie 17'2 2
18/05/19 Newmarket 17:35 Move In Time 7'1 2 371.6
18/05/19 Newbury 16:50 Star Terms 8'1 2
18/05/19 Newbury 15:40 Le Brivido 5'1 2
17/05/19 Hamilton 19:30 Theglasgowwarrior 4'1 2 377.6
17/05/19 York 16:05 Starlight Romance 10'1 2
17/05/19 York 14:25 Twist n Shake 7'4 3
16/05/19 York 16:05 Soldiers Call 2'1 2 371.8
16/05/19 York 15:00 Too Darn Hot 11'10 3
16/05/19 York 15:00 Telecaster 7'1 2
15/05/19 York 15:00 Invincible Army 7'2 2 362.8
13/05/19 Windsor 18:50 Oh This Is Us 9'4 2
13/05/19 Musselburgh 16:10 Donnelly's Rainbow 7'1 2 355.8
11/05/19 Haydock 16:55 Politicise 11'8 3
11/05/19 Ascot 16:00 Kynren 8'1 2
11/05/19 Lingfield 14:30 Anthony Van Dyck 2'1 2 356.47
10/05/19 Market Rasen 15:20 Becky The Thatcher 11'2 2 354.14
09/05/19 Chester 16:35 Lariat 4'1 2 354.04
08/05/19 Chester 17:05 Air Raid 9'1 2 354.54
08/05/19 Chester 17:05 Gin In The Inn 11'2 2
08/05/19 Chester 15:00 Leodis Dream 9'2 2
07/05/19 Wetherby 16:25 Evie Speed 12'1 2 349.54
07/05/19 Wetherby 16:25 Two Blondes 15'2 2
06/05/19 Windsor 16:20 Masham Star 6'1 2 353.54
06/05/19 Kempton 15:30 Tommy Silver 5'4 3
06/05/19 Warwick 14:05 Colditz Castle 7'4 2
04/05/19 Newmarket 15:35 Ten Sovereigns 4'1 2 360.34
04/05/19 Goodwood 14:05 Klassique 6'4 3
04/05/19 Goodwood 13:35 Double Legend 9'2 2
03/05/19 Lingfield 15:35 Oloroso 5'1 2 367.34
02/05/19 Chelmsford City 19:25 Red Impression 6'4 3 369.34
02/05/19 Punchestown 18:40 Duc Des Genievres 2'1 2
01/05/19 Punchestown 18:05 Al Boum Photo 6'4 3 374.34
01/05/19 Ascot 17:00 Daschas 6'1 2
29/04/19 Thirsk 19:10 Black Isle Boy 8'1 2 376.96
29/04/19 Thirsk 17:40 Munhamek 9'2 2
28/04/19 Wetherby 16:55 Theodorico 9'2 2 369.96
27/04/19 Doncaster 18:15 Jalaad 6'1 2 371.96
26/04/19 Doncaster 16:25 Groveman 5'1 2 359.96
26/04/19 Doncaster 15:25 Moraawed 10'3 2
26/04/19 Perth 15:15 Atlanta Ablaze 5'2 2
25/04/19 Perth 17:10 Farocco 28'1 2 357.3
25/04/19 Perth 15:30 Bigmartre 5'1 2
24/04/19 Epsom 15:55 Aquarium 11'1 2 348.3
24/04/19 Epsom 14:45 Arthur Kitt 7'2 2
22/04/19 Fairyhouse 17:00 Pairofbrowneyes 11'1 2 349.4
22/04/19 Plumpton 15:00 Mercian Prince 4'1r4 2
20/04/19 Kempton 15:10 Name The Wind 3'1 2 346.6
20/04/19 Kempton 14:35 Rainbow Heart 9'4 2
20/04/19 Musselburgh 14:25 Reggae Runner 2'1 3
19/04/19 Bath 16:35 Cry Wolf 12'1 2 345.6
19/04/19 Newcastle 16:25 Bo Samraan 13'8 3
19/04/19 Newcastle 15:20 Maries Diamond 6'1 2
19/04/19 Bath 14:55 Living Legend 4'1 2
19/04/19 Bath 14:20 Zulu Zander 6'5 3
18/04/19 Newmarket 16:45 Game Player 4'1 2 341
18/04/19 Newmarket 15:35 Beringer 4'1 3
17/04/19 Newmarket 15:35 Royal Marine 7'4 3 331
17/04/19 Newmarket 15:00 Brando 11'8 3
17/04/19 Cheltenham 14:05 Cotswold Way 3'1 2
16/04/19 Newmarket 15:35 Angels Hideaway 9'2 2 339
16/04/19 Newmarket 15:35 Main Edition 3'1 2
16/04/19 Newmarket 15:00 Western Australia 7'4 3
10/04/19 Chelmsford City 15:35 Dark Vision 6'1 2 344.1
09/04/19 Warwick 16:20 Three Star General 9'1 2 346.1
09/04/19 Lingfield 15:25 Winter Light 11'2 2
08/04/19 Kelso 16:10 Uno Valoroso 7'1 2 349.5
08/04/19 Kelso 15:40 Midnight Shot 4'1 2
08/04/19 Redcar 15:00 Windsor Cross 8'1 2
08/04/19 Redcar 15:00 Give It Some Teddy 9'1 2
06/04/19 Aintree 17:15 Tiger Roll 5'1 3 337.5
06/04/19 Aintree 15:40 Apples Jade 6'4 3
06/04/19 Aintree 15:00 Lalor 4'1 3
06/04/19 Aintree 14:25 Angels Breath 11'4 3
05/04/19 Aintree 16:40 Champ 11'4 3 331.5
05/04/19 Aintree 15:25 Politologue 5'2 3
05/04/19 Aintree 14:50 Topofthegame 4'5 3
05/04/19 Aintree 14:20 Itchy Feet 3'1 3
04/04/19 Taunton 15:50 Capitaine 7'4 3 332.25
04/04/19 Aintree 14:20 Pentland Hills 11'4 3
04/04/19 Aintree 13:45 La Bague Au Roi 13'8 3
04/04/19 Aintree 16:05 Road To Rome 10'3 3
03/04/19 Market Rasen 16:05 Ice Galley 13'2 3 333.2
01/04/19 Chelmsford City 16:10 Bubbelah 11'2 3 336.2
31/03/19 Doncaster 14:00 Right Action 7'1 3 339.2
30/03/19 Stratford 15:40 The Welsh Paddies 3'1 3 318.2
29/03/19 Lingfield 15:05 Drakefell 11'2 3 309.2
29/03/19 Fontwell 14:10 King Muro 7'1 3
27/03/19 Lingfield 15:05 Pacino 9'1 3 295.7
26/03/19 Hexham 14:40 Not The Chablis 12'1 2 294.7
25/03/19 Wincanton 15:15 Opening Batsman 9'2 3 296.7
21/03/19 Sedgefield 15:45 Dans Le Vent 7'2 3 296.7
21/03/19 Ludlow 15:00 Midnight Chill 11'2 3
20/03/19 Chepstow 17:05 Tegerek 13'2 3 283.2
20/03/19 Haydock 16:20 Buffalo Ballet 10'1 3
16/03/19 Uttoxeter 15:00 Magoo 10'1 4 285.25
15/03/19 Cheltenham 14:50 Birchdale 5'1 6 289.25
14/03/19 Cheltenham 15:30 Paisley Park 7'4 6 295.25
14/03/19 Cheltenham 13:30 Defi Du Seuil 3'1 6
13/03/19 Cheltenham 16:10 Tiger Roll 6'4 4 266.75
13/03/19 Cheltenham 13:30 Champ 7'2 4
12/03/19 Cheltenham 16:10 Benie Des Dieux 1'1 6 264.75
11/03/19 Stratford 15:40 Red Tornado 22'1 3 270.75
09/03/19 Wolverhampton 15:15 Oh This Is Us 7'4 3 266.05
08/03/19 Sandown 16:10 Cesar Collonges 7'2 3 269.05
07/03/19 Chelmsford City 18:25 Grey Britain 3'1 3 272.05
06/03/19 Kempton 19:30 In The Red 6'1 3 275.05
06/03/19 Kempton 19:00 Jahbath 5'4 4
01/03/19 Newbury 13:45 Friday Night Light 11'2 3 269.05
28/02/19 Taunton 16:20 Red Mix 5'1 3 272.05
28/02/19 Ludlow 15:35 Uhlan Bute 5'2 3
27/02/19 Wincanton 13:50 Ballybough Nora 8'1 3 278.05
26/02/19 Wolverhampton 18:30 Michele Strogoff 13'8 3 277.05
25/02/19 Plumpton 15:30 Brandon Castle 5'4 3 280.05
22/02/19 Exeter 16:50 Molineaux 7'2 3 275.92
22/02/19 Warwick 14:50 Poker School 8'1 3
22/02/19 Catterick 14:30 Always Resolute 6'4 3
20/02/19 Ludlow 17:10 Ballyellis 6'1 3 284.92
18/02/19 Carlisle 16:05 Minella Daddy 13'2 3 287.92
17/02/19 Market Rasen 14:45 Viva Vittoria 7'1 4 290.92
16/02/19 Kempton 19:15 Grey Britain 11'8 4 262.92
16/02/19 Ascot 15:55 Waiting Patiently 13'8 4
16/02/19 Wincanton 14:20 Atlanta Ablaze 9'4 3
16/02/19 Ascot 13:35 Top Ville Ben 3'1 4
15/02/19 Sandown 16:05 Achille 11'2 4 270.92
06/02/19 Ayr 15:05 Camile 10'1 3
06/02/19 Ludlow 15:15 Tommy Silver 7'2 3 248.92
05/02/19 Market Rasen 15:25 Earlofthecotswolds 6'1 4 221.92
05/02/19 Market Rasen 14:55 Muratello 11'8 3
04/02/19 Taunton 15:45 Duhallow Gesture 1'1 3 200.92
04/02/19 Taunton 15:15 Spring Wolf 6'1 3
02/02/19 Lingfield 13:45 Kachy 1'1 4 179.92
02/02/19 Leopardstown 13:25 Apples Jade 11'10 6
01/02/19 Lingfield 15:25 Grey Britain 3'1 4 169.42
26/01/19 Cheltenham 14:25 Frodon 5'2 4 157.42
26/01/19 Doncaster 14:05 Truckers Lodge 13'8 4
26/01/19 Cheltenham 12:40 Adjali 13'8 4
25/01/19 Huntingdon 14:40 Magic Of Light 6'4 4 147.42
22/01/19 Newcastle 17:45 Encore dOr 9'4 4 151.42
20/01/19 Ayr 14:30 Present Flight 8'1 3 142.42
20/01/19 Ayr 14:30 Teddy Tee 7'1 3
20/01/19 Exeter 13:10 Galactic Power 8'1 3
19/01/19 Haydock 15:45 Ubaltique 6'1 3 147.8
19/01/19 Haydock 14:40 Silver Streak 7'4 4
19/01/19 Haydock 13:30 Jerrysback 6'4 3
18/01/19 Chepstow 13:05 Royal Tara 7'1 3 157.82
16/01/19 Lingfield 15:00 James Street 5'4 3 156.82
14/01/19 Wolverhampton 18:15 Watersmeet 11'4 4 159.82
12/01/19 Warwick 14:25 Tidal Flow 6'5 4 163.82
12/01/19 Wetherby 14:15 Tree Of Liberty 15'8 3
12/01/19 Warwick 13:50 Rockys Treasure 6'4 3
11/01/19 Huntingdon 15:00 Dell Oro 2'1 3 173.82
10/01/19 Southwell 13:20 Eternal Sun 11'2 3 167.82
09/01/19 Taunton 14:20 Fox Appeal 11'4 3 166.82
07/01/19 Wolverhampton 18:45 Hathal 6'4 3 169.82
03/01/19 Southwell 15:10 Hammer Gun 6'1 3 165.32
03/01/19 Ludlow 13:15 Le Precieux 9'4 3
01/01/19 Cheltenham 15:10 Clyne 6'1 4 161.57
01/01/19 Southwell 13:45 Ornate 2'1 3
31/12/18 Lingfield 12:45 Silca Mistress 7'1 3 168.57
29/12/18 Doncaster 15:15 Enniscoffey Oscar 3'1 3 171.57
29/12/18 Doncaster 14:05 Lady Buttons 13'8 4
29/12/18 Newbury 13:50 Coeur Blimey 5'1 3
28/12/18 Leicester 15:05 Ar Mest 4'1 3 171.07
28/12/18 Leicester 13:55 Copper West 4'1 3
27/12/18 Kempton 15:05 Springtown Lake 3'1 4 147.07
27/12/18 Chepstow 14:50 Elegant Escape 5'1 4
22/12/18 Lingfield 14:50 Redicean 15'8 4 131.07
22/12/18 Haydock 14:05 Ballymoy 11'8 3
22/12/18 Haydock 13:35 Ubaltique 9'2 3
22/12/18 Ascot 13:15 Dolos 7'4 3
21/12/18 Wolverhampton 18:45 Corinthia Knight 2'1 4 125.44
20/12/18 Chelmsford City 20:00 Aircraft Carrier 9'4 4 129.44
19/12/18 Ludlow 15:05 Broughtons Admiral 13'2 3 120.44
18/12/18 Southwell 13:30 Black Salt 11'2 3 123.44
15/12/18 Cheltenham 14:30 Aye Aye Charlie 5'2 3 106.94
15/12/18 Newcastle 12:55 Higher Power 4'1 4
14/12/18 Cheltenham 12:45 The Worlds End 7'4 4 109.94
14/12/18 Cheltenham 12:10 Elixir De Nutz 3'1r4 3
13/12/18 Chelmsford City 19:15 Rosina 11'2 3 98.44
12/12/18 Lingfield 12:10 The Warrior 14'1 3 97.44
08/12/18 Aintree 13:30 Blaklion 4'1 4 100.44
07/12/18 Exeter 14:35 Defi Du Seuil 10'1 3 104.44
05/12/18 Haydock 14:25 Becky The Thatcher 10'1 3 74.44
05/12/18 Lingfield 12:30 Wirral Girl 11'8 3
04/12/18 Lingfield 13:20 Madrinho 7'1 3 75.44
04/12/18 Southwell 13:00 Another Crick 5'2 3
02/12/18 Carlisle 12:55 Champagne To Go 13'2 3 81.44
01/12/18 Doncaster 14:15 Sunnytahliateigan 9'4 3 84.44
01/12/18 Newcastle 14:05 Buveur DAir 11'8 6
30/11/18 Newbury 13:50 La Bague Au Roi 6'4 4 79.19
30/11/18 Doncaster 13:40 Buster Thomas 7'4r4 3
30/11/18 Newbury 13:20 Kateson 7'4 3
29/11/18 Chelmsford City 19:45 Global Art 6'1 3 64
29/11/18 Warwick 13:45 Unblinking 15'8 4
29/11/18 Ayr 13:20 Plus Jamais 10'1 3
27/11/18 Lingfield 14:00 Ar Mest 5'1 3 62.5
26/11/18 Kempton 14:35 Sister Sibyl 2'1 3 61.5
26/11/18 Ludlow 13:40 Sternrubin 9'4 3
24/11/18 Haydock 13:15 Activial 5'1 3 57.75
24/11/18 Ascot 12:20 Stoney Mountain 9'4 3
23/11/18 Ascot 15:15 Minella Daddy 4'1 3 45.75
22/11/18 Wincanton 13:15 Eragon De Chanay 13'8 3 48.75
21/11/18 Warwick 15:10 Beat That 6'4 4 51.75
19/11/18 Kempton 17:30 Isomer 10'3 3
19/11/18 Hereford 14:45 Cougar Kid 4'1 3
19/11/18 Plumpton 13:00 Larry 13'8 3 45.75
17/11/18 Lingfield 14:45 Addeybb 13'8 4 51.75
16/11/18 Cheltenham 13:50 Bun Doran 11'4 3 55.75
14/11/18 Exeter 14:35 Just A Sting 9'4 4 47.5
13/11/18 Hereford 13:00 Neachells Bridge 6'1 3 38.5
13/11/18 Hereford 13:00 Ballygown Bay 6'1 3
12/11/18 Kempton 16:00 Blushing Red 7'1 3 23.5
12/11/18 Carlisle 14:35 Dolos 6'4 4
12/11/18 Kempton 14:25 Reigning Supreme 6'4 3
10/11/18 Wincanton 14:25 Bags Groove 5'4 4 5
10/11/18 Aintree 15:20 Baby King 7'1 3 2

READY TO BECOME A BETS 2 U MEMEBER?

We have memberships for Monthly & 3 Monthly

NO CANCELLATION FEE

Free Membership - Free Beeting Tips
Monthly Betting Membership
3 Monthly Betting Membership


Monthly product: Your initial charge will be £2.00 for 30 days.
You will then be charged £50/month until you cancel your subscription.

Quarterly product: Your initial charge will be £2.00 for 30 days.
You will then be charged £120/quarter (every 3 months) until you cancel your subscription

Payment Options